Time;durP1;ratioP1;P1;durP2;ratioP2;P2;SDS_P1;SDS_P2;PMS_P1;PMS_P2;Temp;Humidity;BMP_temperature;BMP_pressure;BME280_temperature;BME280_humidity;BME280_pressure;Samples;Min_cycle;Max_cycle;Signal;HPM_P1;HPM_P2
2022/07/07 00:02:08;;;;;;;;;;;18.40;65.20;;;;;;5221496;28;20400;-68
2022/07/07 00:05:05;;;;;;;;;;;18.40;65.60;;;;;;5235345;28;19920;-65
2022/07/07 00:08:07;;;;;;;;;;;18.50;65.20;;;;;;5229777;28;19924;-67
2022/07/07 00:10:45;;;;;;;;;;;18.50;64.90;;;;;;5210947;28;20285;-67
2022/07/07 00:13:19;;;;;;;;;;;18.40;65.20;;;;;;5245678;28;19924;-66
2022/07/07 00:16:18;;;;;;;;;;;18.50;64.60;;;;;;5247602;28;19920;-67
2022/07/07 00:18:55;;;;;;;;;;;18.30;64.90;;;;;;5221443;28;20199;-68
2022/07/07 00:21:44;;;;;;;;;;;18.30;66.10;;;;;;5232262;28;19928;-68
2022/07/07 00:24:24;;;;;;;;;;;18.20;66.30;;;;;;5241852;28;19923;-66
2022/07/07 00:26:58;;;;;;;;;;;18.10;67.10;;;;;;5219071;28;19928;-68
2022/07/07 00:29:44;;;;;;;;;;;18.10;67.30;;;;;;5225551;28;19924;-68
2022/07/07 00:32:20;;;;;;;;;;;18.00;68.20;;;;;;5217919;28;19924;-69
2022/07/07 00:35:14;;;;;;;;;;;18.00;68.30;;;;;;5249762;28;19924;-68
2022/07/07 00:37:48;;;;;;;;;;;18.00;68.50;;;;;;5250822;28;19919;-67
2022/07/07 00:41:16;;;;;;;;;;;18.00;68.10;;;;;;5206501;28;19908;-68
2022/07/07 00:43:53;;;;;;;;;;;18.00;68.00;;;;;;5231264;28;19931;-71
2022/07/07 00:46:42;;;;;;;;;;;18.10;69.70;;;;;;5229341;28;19930;-66
2022/07/07 00:49:43;;;;;;;;;;;18.10;70.00;;;;;;5245392;28;19923;-70
2022/07/07 00:52:19;;;;;;;;;;;18.10;67.60;;;;;;5242063;28;20052;-67
2022/07/07 00:55:00;;;;;;;;;;;18.00;68.60;;;;;;5207914;28;19946;-70
2022/07/07 00:57:50;;;;;;;;;;;18.00;68.40;;;;;;5265275;28;19936;-69
2022/07/07 01:00:31;;;;;;;;;;;17.90;69.00;;;;;;5227382;28;20158;-69
2022/07/07 01:03:20;;;;;;;;;;;18.00;68.70;;;;;;5236201;28;19931;-69
2022/07/07 01:05:57;;;;;;;;;;;17.90;67.80;;;;;;5210857;28;19920;-67
2022/07/07 01:08:39;;;;;;;;;;;17.90;69.20;;;;;;5241652;28;19939;-67
2022/07/07 01:11:15;;;;;;;;;;;17.80;67.60;;;;;;5260274;28;19924;-68
2022/07/07 01:13:53;;;;;;;;;;;17.80;68.10;;;;;;5219533;28;19934;-67
2022/07/07 01:16:36;;;;;;;;;;;17.80;68.10;;;;;;5249182;28;19924;-68
2022/07/07 01:19:24;;;;;;;;;;;17.80;68.60;;;;;;5209892;28;20291;-67
2022/07/07 01:22:06;;;;;;;;;;;17.70;68.40;;;;;;5205544;28;19920;-68
2022/07/07 01:24:42;;;;;;;;;;;17.70;68.80;;;;;;5220971;28;19924;-67
2022/07/07 01:27:24;;;;;;;;;;;17.80;68.90;;;;;;5234122;28;19913;-68
2022/07/07 01:29:58;;;;;;;;;;;17.70;67.90;;;;;;5212249;28;19936;-67
2022/07/07 01:32:44;;;;;;;;;;;17.70;67.70;;;;;;5220118;28;19924;-68
2022/07/07 01:35:31;;;;;;;;;;;17.70;68.40;;;;;;5233626;28;20395;-68
2022/07/07 01:38:07;;;;;;;;;;;17.60;68.10;;;;;;5242677;28;19936;-68
2022/07/07 01:40:59;;;;;;;;;;;17.60;67.90;;;;;;5241644;28;19916;-67
2022/07/07 01:43:33;;;;;;;;;;;17.70;68.50;;;;;;5236857;28;20279;-67
2022/07/07 01:46:20;;;;;;;;;;;17.60;68.50;;;;;;5221697;28;20200;-67
2022/07/07 01:48:59;;;;;;;;;;;17.60;69.00;;;;;;5219429;28;20362;-69
2022/07/07 01:51:32;;;;;;;;;;;17.60;68.90;;;;;;5238624;28;20590;-68
2022/07/07 01:54:08;;;;;;;;;;;17.60;67.10;;;;;;5205782;28;19927;-67
2022/07/07 01:56:49;;;;;;;;;;;17.60;67.90;;;;;;5209669;28;20200;-67
2022/07/07 01:59:25;;;;;;;;;;;17.50;67.50;;;;;;5220852;28;19924;-68
2022/07/07 02:02:01;;;;;;;;;;;17.50;67.70;;;;;;5221833;28;19924;-68
2022/07/07 02:04:35;;;;;;;;;;;17.40;67.00;;;;;;5241418;28;19928;-69
2022/07/07 02:07:24;;;;;;;;;;;17.40;67.30;;;;;;5226569;28;19936;-69
2022/07/07 02:10:00;;;;;;;;;;;17.40;67.30;;;;;;5240881;28;20146;-68
2022/07/07 02:13:15;;;;;;;;;;;17.40;67.40;;;;;;5238362;28;19924;-67
2022/07/07 02:16:21;;;;;;;;;;;17.20;67.70;;;;;;5237344;28;19909;-69
2022/07/07 02:19:05;;;;;;;;;;;17.40;67.60;;;;;;5220650;28;19924;-70
2022/07/07 02:22:39;;;;;;;;;;;17.30;68.60;;;;;;5214883;28;20331;-70
2022/07/07 02:25:34;;;;;;;;;;;17.30;67.90;;;;;;5212395;28;19923;-67
2022/07/07 02:28:20;;;;;;;;;;;17.30;67.30;;;;;;5220244;28;19924;-67
2022/07/07 02:34:38;;;;;;;;;;;17.30;68.50;;;;;;5202515;28;20093;-67
2022/07/07 02:37:22;;;;;;;;;;;;;;;;;;5228609;28;19928;-69
2022/07/07 02:40:29;;;;;;;;;;;;;;;;;;5224321;28;19935;-68
2022/07/07 02:43:05;;;;;;;;;;;17.40;68.30;;;;;;5223643;28;19925;-67
2022/07/07 02:48:50;;;;;;;;;;;;;;;;;;5213064;28;19928;-67
2022/07/07 02:51:33;;;;;;;;;;;;;;;;;;5227761;28;19924;-67
2022/07/07 02:54:38;;;;;;;;;;;;;;;;;;5249286;28;19916;-68
2022/07/07 02:57:52;;;;;;;;;;;;;;;;;;5238741;28;19928;-67
2022/07/07 03:00:38;;;;;;;;;;;;;;;;;;5230959;28;19930;-68
2022/07/07 03:03:36;;;;;;;;;;;;;;;;;;5218823;28;19923;-68
2022/07/07 03:07:09;;;;;;;;;;;;;;;;;;5254847;28;19928;-68
2022/07/07 03:10:09;;;;;;;;;;;;;;;;;;5154407;28;19929;-67
2022/07/07 03:12:56;;;;;;;;;;;;;;;;;;5169524;28;19929;-67
2022/07/07 03:15:40;;;;;;;;;;;;;;;;;;5232683;28;20541;-69
2022/07/07 03:18:15;;;;;;;;;;;;;;;;;;5230249;28;19928;-70
2022/07/07 03:23:51;;;;;;;;;;;;;;;;;;5239920;28;19925;-68
2022/07/07 03:26:26;;;;;;;;;;;;;;;;;;5219086;28;19916;-67
2022/07/07 03:29:10;;;;;;;;;;;;;;;;;;5236443;28;19931;-67
2022/07/07 03:32:09;;;;;;;;;;;;;;;;;;5212188;28;19925;-67
2022/07/07 03:34:49;;;;;;;;;;;;;;;;;;5214474;28;19938;-66
2022/07/07 03:37:33;;;;;;;;;;;;;;;;;;5240032;28;19928;-67
2022/07/07 03:40:08;;;;;;;;;;;;;;;;;;5231201;28;19929;-67
2022/07/07 03:42:54;;;;;;;;;;;;;;;;;;5240270;28;19935;-67
2022/07/07 03:45:36;;;;;;;;;;;16.70;68.40;;;;;;5230083;28;19924;-67
2022/07/07 03:48:13;;;;;;;;;;;;;;;;;;5230667;28;19939;-67
2022/07/07 03:50:47;;;;;;;;;;;;;;;;;;5226322;28;19924;-67
2022/07/07 03:53:25;;;;;;;;;;;;;;;;;;5215478;28;19928;-67
2022/07/07 03:56:01;;;;;;;;;;;;;;;;;;5229582;28;19925;-67
2022/07/07 03:58:40;;;;;;;;;;;;;;;;;;5230269;28;19920;-67
2022/07/07 04:04:27;;;;;;;;;;;16.50;69.10;;;;;;5240780;28;20270;-67
2022/07/07 04:07:08;;;;;;;;;;;16.40;70.20;;;;;;5250977;28;20397;-67
2022/07/07 04:09:45;;;;;;;;;;;16.30;70.40;;;;;;5236733;28;19916;-69
2022/07/07 04:12:26;;;;;;;;;;;16.30;71.10;;;;;;5230944;28;19924;-68
2022/07/07 04:15:09;;;;;;;;;;;16.30;70.50;;;;;;5238023;28;19924;-67
2022/07/07 04:17:52;;;;;;;;;;;16.30;70.70;;;;;;5264120;28;19916;-68
2022/07/07 04:20:32;;;;;;;;;;;16.30;70.70;;;;;;5232170;28;19920;-67
2022/07/07 04:23:18;;;;;;;;;;;16.40;71.40;;;;;;5249190;28;19939;-67
2022/07/07 04:25:59;;;;;;;;;;;16.30;70.90;;;;;;5241567;28;20338;-68
2022/07/07 04:28:41;;;;;;;;;;;16.30;71.10;;;;;;5234701;28;19955;-69
2022/07/07 04:31:14;;;;;;;;;;;16.40;71.20;;;;;;5235404;28;19928;-71
2022/07/07 04:33:58;;;;;;;;;;;16.30;72.20;;;;;;5220222;28;19931;-68
2022/07/07 04:36:35;;;;;;;;;;;16.40;71.60;;;;;;5245556;28;19925;-69
2022/07/07 04:39:14;;;;;;;;;;;16.40;71.20;;;;;;5234637;28;19940;-68
2022/07/07 04:41:50;;;;;;;;;;;16.40;71.70;;;;;;5221409;28;20263;-69
2022/07/07 04:44:28;;;;;;;;;;;16.40;72.10;;;;;;5252429;28;19935;-67
2022/07/07 04:47:07;;;;;;;;;;;16.50;71.00;;;;;;5245221;28;20827;-68
2022/07/07 04:49:44;;;;;;;;;;;16.40;71.60;;;;;;5245210;28;19924;-68
2022/07/07 04:52:19;;;;;;;;;;;16.50;73.40;;;;;;5238885;28;19923;-68
2022/07/07 04:54:53;;;;;;;;;;;16.50;71.50;;;;;;5244020;28;19940;-67
2022/07/07 04:57:31;;;;;;;;;;;16.60;71.20;;;;;;5246301;28;20282;-68
2022/07/07 05:03:57;;;;;;;;;;;16.60;71.60;;;;;;5245728;28;19932;-68
2022/07/07 05:06:35;;;;;;;;;;;16.60;72.40;;;;;;5229046;28;19935;-68
2022/07/07 05:13:35;;;;;;;;;;;16.70;71.30;;;;;;5223618;28;20189;-67
2022/07/07 05:17:17;;;;;;;;;;;16.70;72.30;;;;;;5239562;27;19916;-68
2022/07/07 05:20:44;;;;;;;;;;;16.70;72.10;;;;;;5220915;28;19927;-69
2022/07/07 05:32:18;;;;;;;;;;;16.80;70.70;;;;;;5183671;28;19929;-68
2022/07/07 05:46:57;;;;;;;;;;;16.90;70.30;;;;;;5173847;28;19948;-68
2022/07/07 05:53:28;;;;;;;;;;;17.00;71.20;;;;;;5237501;28;20200;-69
2022/07/07 05:56:29;;;;;;;;;;;17.10;71.00;;;;;;5208190;28;19924;-68
2022/07/07 05:59:09;;;;;;;;;;;17.10;70.50;;;;;;5149393;28;19929;-71
2022/07/07 06:01:45;;;;;;;;;;;17.20;70.80;;;;;;5244225;28;19929;-73
2022/07/07 06:04:19;;;;;;;;;;;17.20;70.80;;;;;;5221766;28;19931;-72
2022/07/07 06:07:00;;;;;;;;;;;17.20;70.80;;;;;;5216549;28;19927;-71
2022/07/07 06:09:40;;;;;;;;;;;17.20;71.70;;;;;;5238823;28;20465;-67
2022/07/07 06:12:40;;;;;;;;;;;17.20;70.90;;;;;;5235094;28;19924;-67
2022/07/07 06:15:39;;;;;;;;;;;17.20;70.40;;;;;;5230295;28;19928;-67
2022/07/07 06:18:32;;;;;;;;;;;17.20;69.80;;;;;;5228876;28;19936;-69
2022/07/07 06:21:16;;;;;;;;;;;17.00;68.90;;;;;;5215619;28;19917;-68
2022/07/07 06:23:54;;;;;;;;;;;17.10;69.10;;;;;;5228102;28;19935;-66
2022/07/07 06:26:40;;;;;;;;;;;17.10;70.50;;;;;;5242638;28;19927;-66
2022/07/07 06:29:24;;;;;;;;;;;17.10;69.90;;;;;;5221884;28;19924;-68
2022/07/07 06:32:15;;;;;;;;;;;17.10;70.20;;;;;;5221173;28;19925;-67
2022/07/07 06:34:49;;;;;;;;;;;17.10;69.90;;;;;;5192591;28;20942;-69
2022/07/07 06:37:32;;;;;;;;;;;17.10;69.00;;;;;;5221005;28;19925;-69
2022/07/07 06:40:20;;;;;;;;;;;17.10;70.00;;;;;;5209287;28;19943;-67
2022/07/07 06:43:02;;;;;;;;;;;17.10;69.90;;;;;;5225407;28;19924;-67
2022/07/07 06:45:47;;;;;;;;;;;17.10;71.20;;;;;;5218322;28;19936;-68
2022/07/07 06:48:23;;;;;;;;;;;17.20;69.70;;;;;;5255576;28;19938;-68
2022/07/07 06:50:56;;;;;;;;;;;17.10;70.10;;;;;;5218877;28;19925;-67
2022/07/07 06:53:29;;;;;;;;;;;17.10;70.70;;;;;;5242662;28;19916;-67
2022/07/07 06:56:13;;;;;;;;;;;17.00;70.90;;;;;;5253244;28;19923;-67
2022/07/07 06:58:55;;;;;;;;;;;17.00;70.50;;;;;;5225436;28;19924;-66
2022/07/07 07:01:33;;;;;;;;;;;17.00;70.90;;;;;;5232093;28;20275;-67
2022/07/07 07:04:13;;;;;;;;;;;17.10;71.60;;;;;;5201446;28;19920;-70
2022/07/07 07:07:08;;;;;;;;;;;17.20;71.70;;;;;;5221235;28;19931;-68
2022/07/07 07:09:46;;;;;;;;;;;17.30;71.80;;;;;;5205786;28;19928;-67
2022/07/07 07:12:21;;;;;;;;;;;17.40;71.60;;;;;;5240444;28;19921;-67
2022/07/07 07:15:02;;;;;;;;;;;17.30;70.20;;;;;;5199693;28;19928;-68
2022/07/07 07:17:47;;;;;;;;;;;17.40;70.60;;;;;;5224951;28;19928;-68
2022/07/07 07:20:23;;;;;;;;;;;17.40;70.40;;;;;;5242301;28;19924;-67
2022/07/07 07:23:20;;;;;;;;;;;17.60;71.30;;;;;;5238550;28;19989;-68
2022/07/07 07:26:26;;;;;;;;;;;17.50;69.40;;;;;;5225244;28;19934;-70
2022/07/07 07:29:03;;;;;;;;;;;17.50;68.90;;;;;;5242753;28;19931;-69
2022/07/07 07:31:45;;;;;;;;;;;17.60;70.30;;;;;;5260337;28;19925;-69
2022/07/07 07:34:29;;;;;;;;;;;17.60;70.50;;;;;;5240285;28;19934;-67
2022/07/07 07:37:12;;;;;;;;;;;17.70;69.10;;;;;;5226819;28;19928;-68
2022/07/07 07:39:56;;;;;;;;;;;17.80;69.90;;;;;;5259262;28;19916;-69
2022/07/07 07:42:29;;;;;;;;;;;17.80;69.00;;;;;;5239675;28;19931;-69
2022/07/07 07:45:15;;;;;;;;;;;17.80;69.40;;;;;;5230020;28;19929;-69
2022/07/07 07:47:54;;;;;;;;;;;17.80;69.00;;;;;;5225138;28;19934;-68
2022/07/07 07:50:33;;;;;;;;;;;17.70;70.20;;;;;;5251311;28;19924;-68
2022/07/07 07:53:15;;;;;;;;;;;17.60;71.70;;;;;;5242157;28;19924;-69
2022/07/07 07:55:56;;;;;;;;;;;17.50;71.40;;;;;;5260173;28;19916;-69
2022/07/07 07:58:36;;;;;;;;;;;17.60;75.20;;;;;;5255662;28;20059;-69
2022/07/07 08:01:09;;;;;;;;;;;17.50;72.30;;;;;;5247382;28;19920;-69
2022/07/07 08:03:44;;;;;;;;;;;17.50;72.70;;;;;;5248649;28;19923;-69
2022/07/07 08:06:20;;;;;;;;;;;17.70;72.60;;;;;;5259110;28;19916;-68
2022/07/07 08:09:24;;;;;;;;;;;17.80;71.20;;;;;;5224313;28;19927;-67
2022/07/07 08:12:14;;;;;;;;;;;17.80;71.70;;;;;;5200333;28;19924;-67
2022/07/07 08:15:38;;;;;;;;;;;17.90;70.30;;;;;;5246141;28;19924;-67
2022/07/07 08:18:26;;;;;;;;;;;18.00;72.20;;;;;;5239187;28;19924;-67
2022/07/07 08:21:22;;;;;;;;;;;18.10;71.20;;;;;;5242026;28;19924;-69
2022/07/07 08:24:46;;;;;;;;;;;18.20;70.80;;;;;;5172788;28;19925;-69
2022/07/07 08:31:30;;;;;;;;;;;18.30;70.30;;;;;;5152460;28;19926;-68
2022/07/07 08:34:50;;;;;;;;;;;18.50;70.50;;;;;;5093829;29;19927;-69
2022/07/07 08:38:30;;;;;;;;;;;18.60;69.80;;;;;;5098823;29;19918;-68
2022/07/07 08:41:40;;;;;;;;;;;18.50;70.20;;;;;;5093197;29;19919;-68
2022/07/07 08:44:31;;;;;;;;;;;18.60;68.60;;;;;;5103404;29;19922;-68
2022/07/07 08:50:46;;;;;;;;;;;18.70;67.20;;;;;;5087157;29;20186;-68
2022/07/07 08:53:35;;;;;;;;;;;18.80;68.20;;;;;;5048805;29;19957;-68
2022/07/07 08:57:19;;;;;;;;;;;18.90;67.70;;;;;;5072476;29;19923;-68
2022/07/07 09:01:07;;;;;;;;;;;18.90;67.00;;;;;;5066651;28;19927;-68
2022/07/07 09:04:28;;;;;;;;;;;19.10;67.30;;;;;;5102025;28;19940;-69
2022/07/07 09:07:14;;;;;;;;;;;19.30;67.20;;;;;;5151309;28;19932;-68
2022/07/07 09:10:13;;;;;;;;;;;19.10;65.80;;;;;;5111278;29;19927;-68
2022/07/07 09:13:36;;;;;;;;;;;19.20;65.60;;;;;;5099378;28;20291;-69
2022/07/07 09:16:35;;;;;;;;;;;19.50;66.40;;;;;;5150984;28;19910;-69
2022/07/07 09:19:24;;;;;;;;;;;19.70;64.60;;;;;;5129921;28;19930;-69
2022/07/07 09:21:58;;;;;;;;;;;19.70;65.50;;;;;;5116535;28;19942;-68
2022/07/07 09:25:07;;;;;;;;;;;19.90;63.80;;;;;;5142102;28;19925;-68
2022/07/07 09:27:49;;;;;;;;;;;19.80;63.80;;;;;;5141127;28;19941;-69
2022/07/07 09:30:37;;;;;;;;;;;19.90;63.30;;;;;;5160953;28;19936;-68
2022/07/07 09:33:20;;;;;;;;;;;19.80;62.80;;;;;;5168798;28;19926;-68
2022/07/07 09:39:56;;;;;;;;;;;19.30;64.60;;;;;;5190580;28;25350;-69
2022/07/07 09:43:15;;;;;;;;;;;19.10;64.70;;;;;;5230745;28;19931;-69
2022/07/07 09:46:05;;;;;;;;;;;19.00;69.70;;;;;;5241451;28;19916;-69
2022/07/07 09:49:03;;;;;;;;;;;18.90;71.40;;;;;;5243171;28;19929;-69
2022/07/07 09:52:13;;;;;;;;;;;18.80;70.70;;;;;;5242867;28;19935;-68
2022/07/07 09:55:02;;;;;;;;;;;18.70;72.50;;;;;;5218599;28;19924;-67
2022/07/07 09:57:39;;;;;;;;;;;18.80;72.00;;;;;;5235296;28;19940;-68
2022/07/07 10:00:19;;;;;;;;;;;18.80;73.20;;;;;;5235244;28;19936;-70
2022/07/07 10:03:02;;;;;;;;;;;18.90;73.80;;;;;;5235503;28;20048;-69
2022/07/07 10:05:35;;;;;;;;;;;19.00;73.70;;;;;;5241155;28;19928;-68
2022/07/07 10:08:17;;;;;;;;;;;19.10;73.30;;;;;;5242005;28;19925;-68
2022/07/07 10:10:54;;;;;;;;;;;19.20;73.30;;;;;;5248136;28;20209;-70
2022/07/07 10:13:37;;;;;;;;;;;19.20;72.00;;;;;;5250490;28;19935;-68
2022/07/07 10:16:21;;;;;;;;;;;19.40;71.20;;;;;;5250974;28;19946;-68
2022/07/07 10:18:56;;;;;;;;;;;19.40;69.70;;;;;;5252484;28;19912;-69
2022/07/07 10:21:30;;;;;;;;;;;19.30;69.60;;;;;;5236043;28;19935;-69
2022/07/07 10:24:35;;;;;;;;;;;19.10;71.10;;;;;;5247718;28;20529;-68
2022/07/07 10:27:15;;;;;;;;;;;19.00;70.50;;;;;;5227060;28;19994;-67
2022/07/07 10:29:56;;;;;;;;;;;19.00;69.10;;;;;;5225204;28;19934;-67
2022/07/07 10:32:52;;;;;;;;;;;18.90;71.40;;;;;;5222754;28;19928;-68
2022/07/07 10:35:45;;;;;;;;;;;18.90;72.00;;;;;;5237287;28;19928;-68
2022/07/07 10:38:26;;;;;;;;;;;18.50;73.80;;;;;;5206249;28;19920;-67
2022/07/07 10:41:03;;;;;;;;;;;18.40;74.90;;;;;;5237931;28;19909;-69
2022/07/07 10:43:42;;;;;;;;;;;18.40;75.30;;;;;;5234914;28;20153;-69
2022/07/07 10:46:18;;;;;;;;;;;18.40;76.10;;;;;;5238817;28;19920;-68
2022/07/07 10:49:07;;;;;;;;;;;18.40;74.70;;;;;;5242380;28;20097;-69
2022/07/07 10:51:55;;;;;;;;;;;18.60;73.70;;;;;;5230316;28;19924;-68
2022/07/07 10:54:37;;;;;;;;;;;18.90;75.00;;;;;;5229604;28;19928;-69
2022/07/07 10:57:11;;;;;;;;;;;19.10;75.50;;;;;;5213595;28;19924;-68
2022/07/07 11:00:00;;;;;;;;;;;19.40;73.80;;;;;;5224759;28;19932;-68
2022/07/07 11:02:57;;;;;;;;;;;19.80;75.30;;;;;;5225856;28;19924;-69
2022/07/07 11:05:31;;;;;;;;;;;20.30;71.50;;;;;;5217549;28;19928;-68
2022/07/07 11:08:09;;;;;;;;;;;20.10;67.30;;;;;;5220235;28;19950;-69
2022/07/07 11:10:45;;;;;;;;;;;20.30;68.40;;;;;;5246189;28;19920;-69
2022/07/07 11:13:21;;;;;;;;;;;20.30;66.40;;;;;;5206551;28;19939;-68
2022/07/07 11:16:29;;;;;;;;;;;20.30;66.60;;;;;;5209696;28;20100;-68
2022/07/07 11:19:47;;;;;;;;;;;20.30;66.90;;;;;;5172834;28;20281;-69
2022/07/07 11:22:51;;;;;;;;;;;20.30;68.20;;;;;;5191663;28;19939;-70
2022/07/07 11:26:04;;;;;;;;;;;20.30;67.60;;;;;;5198085;28;20004;-70
2022/07/07 11:29:03;;;;;;;;;;;20.30;66.50;;;;;;5199504;28;19926;-70
2022/07/07 11:31:50;;;;;;;;;;;20.20;67.10;;;;;;5184428;28;19960;-69
2022/07/07 11:35:43;;;;;;;;;;;20.30;65.50;;;;;;5197840;28;19924;-68
2022/07/07 11:38:32;;;;;;;;;;;20.40;64.70;;;;;;5191236;28;19925;-68
2022/07/07 11:44:45;;;;;;;;;;;21.00;67.50;;;;;;5220804;28;20117;-67
2022/07/07 11:48:22;;;;;;;;;;;21.00;64.70;;;;;;5211738;28;20343;-70
2022/07/07 11:51:19;;;;;;;;;;;;;;;;;;;;;
2022/07/07 11:54:45;;;;;;;;;;;20.70;67.40;;;;;;5244185;28;19929;-70
2022/07/07 11:57:30;;;;;;;;;;;20.40;66.60;;;;;;5221620;28;20274;-70
2022/07/07 12:00:29;;;;;;;;;;;20.40;67.70;;;;;;5191965;28;19929;-69
2022/07/07 12:03:13;;;;;;;;;;;20.30;67.50;;;;;;5231783;28;19931;-71
2022/07/07 12:05:48;;;;;;;;;;;20.30;67.50;;;;;;5206051;28;19935;-71
2022/07/07 12:08:34;;;;;;;;;;;20.40;67.90;;;;;;5236422;28;19916;-69
2022/07/07 12:11:19;;;;;;;;;;;20.50;66.40;;;;;;5197598;28;20416;-69
2022/07/07 12:13:54;;;;;;;;;;;20.50;69.20;;;;;;5192222;28;19931;-69
2022/07/07 12:16:39;;;;;;;;;;;20.50;67.60;;;;;;5228493;28;19928;-70
2022/07/07 12:19:13;;;;;;;;;;;20.30;66.70;;;;;;5229491;28;19924;-70
2022/07/07 12:21:47;;;;;;;;;;;20.10;68.00;;;;;;5214779;28;20330;-69
2022/07/07 12:24:23;;;;;;;;;;;20.20;70.30;;;;;;5208037;28;21524;-70
2022/07/07 12:27:19;;;;;;;;;;;20.10;68.30;;;;;;5209160;28;19931;-69
2022/07/07 12:30:04;;;;;;;;;;;20.10;68.90;;;;;;5208412;28;20029;-70
2022/07/07 12:32:42;;;;;;;;;;;20.10;69.20;;;;;;5236777;28;19924;-69
2022/07/07 12:35:25;;;;;;;;;;;20.10;68.50;;;;;;5231220;28;19931;-69
2022/07/07 12:38:02;;;;;;;;;;;20.10;70.80;;;;;;5228760;28;19932;-69
2022/07/07 12:40:37;;;;;;;;;;;20.20;69.00;;;;;;5203999;28;19924;-69
2022/07/07 12:43:11;;;;;;;;;;;20.30;69.80;;;;;;5242837;28;20509;-71
2022/07/07 12:46:03;;;;;;;;;;;20.40;71.20;;;;;;5230223;28;19936;-71
2022/07/07 12:48:47;;;;;;;;;;;20.20;70.60;;;;;;5238027;28;19920;-69
2022/07/07 12:51:24;;;;;;;;;;;20.00;70.80;;;;;;5245117;28;19924;-69
2022/07/07 12:53:58;;;;;;;;;;;20.00;72.60;;;;;;5248347;28;19928;-70
2022/07/07 12:56:38;;;;;;;;;;;20.00;74.00;;;;;;5245674;28;19928;-68
2022/07/07 12:59:15;;;;;;;;;;;20.00;79.20;;;;;;5255294;28;19924;-67
2022/07/07 13:01:49;;;;;;;;;;;20.10;78.10;;;;;;5230020;28;20662;-70
2022/07/07 13:04:24;;;;;;;;;;;20.00;72.30;;;;;;5237128;28;19962;-67
2022/07/07 13:06:57;;;;;;;;;;;20.30;74.90;;;;;;5233119;28;19928;-69
2022/07/07 13:09:31;;;;;;;;;;;20.60;72.70;;;;;;5241372;28;19928;-68
2022/07/07 13:12:11;;;;;;;;;;;20.70;74.50;;;;;;5218774;28;19935;-73
2022/07/07 13:14:45;;;;;;;;;;;20.80;72.10;;;;;;5224849;28;20353;-68
2022/07/07 13:17:17;;;;;;;;;;;20.90;70.50;;;;;;5201695;28;21075;-68
2022/07/07 13:19:50;;;;;;;;;;;21.00;69.40;;;;;;5237562;28;20031;-70
2022/07/07 13:22:23;;;;;;;;;;;20.90;68.50;;;;;;5228995;28;19936;-70
2022/07/07 13:24:57;;;;;;;;;;;20.90;68.50;;;;;;5231893;28;19935;-70
2022/07/07 13:27:30;;;;;;;;;;;20.90;69.60;;;;;;5229122;28;19927;-68
2022/07/07 13:30:03;;;;;;;;;;;20.80;69.90;;;;;;5248209;28;19925;-71
2022/07/07 13:32:36;;;;;;;;;;;20.70;70.20;;;;;;5230077;28;20054;-70
2022/07/07 13:35:09;;;;;;;;;;;20.50;68.70;;;;;;5218170;28;19924;-69
2022/07/07 13:37:42;;;;;;;;;;;20.30;70.40;;;;;;5234511;28;19928;-69
2022/07/07 13:40:15;;;;;;;;;;;20.20;71.00;;;;;;5239352;28;19924;-69
2022/07/07 13:42:47;;;;;;;;;;;20.10;73.20;;;;;;5231376;28;19928;-69
2022/07/07 13:45:21;;;;;;;;;;;20.00;73.20;;;;;;5227909;28;19924;-69
2022/07/07 13:47:53;;;;;;;;;;;19.90;71.60;;;;;;5247760;28;19932;-69
2022/07/07 13:50:26;;;;;;;;;;;19.90;73.60;;;;;;5231831;28;20417;-71
2022/07/07 13:52:59;;;;;;;;;;;19.80;74.30;;;;;;5239949;28;19923;-70
2022/07/07 13:55:31;;;;;;;;;;;19.80;78.50;;;;;;5238452;28;20713;-71
2022/07/07 13:58:04;;;;;;;;;;;19.50;78.50;;;;;;5201700;28;19924;-70
2022/07/07 14:00:37;;;;;;;;;;;19.30;80.00;;;;;;5229850;28;19931;-72
2022/07/07 14:03:10;;;;;;;;;;;18.80;88.70;;;;;;5238585;28;19929;-70
2022/07/07 14:05:43;;;;;;;;;;;18.40;94.00;;;;;;5206432;28;19928;-71
2022/07/07 14:08:16;;;;;;;;;;;18.20;99.90;;;;;;5227775;28;20394;-69
2022/07/07 14:10:51;;;;;;;;;;;18.20;99.90;;;;;;5214673;28;19943;-70
2022/07/07 14:13:25;;;;;;;;;;;18.20;99.90;;;;;;5228019;28;19925;-69
2022/07/07 14:15:58;;;;;;;;;;;18.30;99.90;;;;;;5225385;28;20628;-70
2022/07/07 14:18:31;;;;;;;;;;;18.30;99.90;;;;;;5218274;28;19924;-70
2022/07/07 14:21:05;;;;;;;;;;;18.30;99.90;;;;;;5233426;28;20295;-73
2022/07/07 14:23:38;;;;;;;;;;;18.40;99.90;;;;;;5229644;28;19931;-70
2022/07/07 14:26:11;;;;;;;;;;;18.30;99.90;;;;;;5222427;28;19935;-72
2022/07/07 14:28:44;;;;;;;;;;;18.40;99.90;;;;;;5202588;28;19931;-72
2022/07/07 14:31:17;;;;;;;;;;;18.90;99.90;;;;;;5193880;28;19928;-69
2022/07/07 14:33:50;;;;;;;;;;;19.60;99.90;;;;;;5226350;28;20458;-71
2022/07/07 14:36:23;;;;;;;;;;;19.50;99.90;;;;;;5228016;28;20435;-72
2022/07/07 14:38:55;;;;;;;;;;;19.60;99.90;;;;;;5231639;28;19924;-71
2022/07/07 14:41:28;;;;;;;;;;;19.50;99.90;;;;;;5188024;28;20347;-72
2022/07/07 14:44:05;;;;;;;;;;;19.90;99.90;;;;;;5201170;28;20371;-72
2022/07/07 14:46:38;;;;;;;;;;;20.70;99.90;;;;;;5224213;28;20289;-71
2022/07/07 14:49:12;;;;;;;;;;;21.30;99.90;;;;;;5211431;28;19931;-73
2022/07/07 14:51:45;;;;;;;;;;;21.60;99.40;;;;;;5214786;28;19939;-73
2022/07/07 14:54:18;;;;;;;;;;;21.80;99.90;;;;;;5197722;28;20355;-73
2022/07/07 14:56:51;;;;;;;;;;;21.90;98.40;;;;;;5205582;28;19924;-72
2022/07/07 14:59:24;;;;;;;;;;;21.50;98.90;;;;;;5206448;28;19921;-74
2022/07/07 15:01:57;;;;;;;;;;;21.00;99.40;;;;;;5201180;28;19932;-71
2022/07/07 15:04:30;;;;;;;;;;;20.80;94.70;;;;;;5215662;28;19924;-71
2022/07/07 15:07:04;;;;;;;;;;;20.70;99.90;;;;;;5215199;28;19924;-73
2022/07/07 15:09:38;;;;;;;;;;;20.50;99.90;;;;;;5172886;28;19951;-71
2022/07/07 15:12:11;;;;;;;;;;;20.30;93.60;;;;;;5193036;28;20912;-72
2022/07/07 15:14:45;;;;;;;;;;;20.20;97.80;;;;;;5184935;28;19946;-72
2022/07/07 15:17:18;;;;;;;;;;;20.00;99.40;;;;;;5211481;28;19939;-73
2022/07/07 15:19:55;;;;;;;;;;;19.90;97.60;;;;;;5188734;28;19935;-72
2022/07/07 15:22:28;;;;;;;;;;;19.80;97.70;;;;;;5200834;28;19924;-74
2022/07/07 15:25:05;;;;;;;;;;;19.60;99.90;;;;;;5210948;28;19943;-72
2022/07/07 15:27:38;;;;;;;;;;;19.50;99.90;;;;;;5232627;28;19924;-73
2022/07/07 15:30:12;;;;;;;;;;;19.40;99.90;;;;;;5215315;28;20842;-71
2022/07/07 15:32:45;;;;;;;;;;;19.20;99.90;;;;;;5191869;28;19931;-71
2022/07/07 15:35:19;;;;;;;;;;;19.00;99.90;;;;;;5222613;28;19924;-70
2022/07/07 15:37:52;;;;;;;;;;;18.70;99.90;;;;;;5201360;28;19924;-71
2022/07/07 15:40:25;;;;;;;;;;;18.50;99.90;;;;;;5206619;28;19931;-70
2022/07/07 15:42:58;;;;;;;;;;;18.30;99.90;;;;;;5231225;28;19931;-71
2022/07/07 15:45:31;;;;;;;;;;;18.20;99.90;;;;;;5216548;28;19928;-69
2022/07/07 15:48:19;;;;;;;;;;;18.30;99.90;;;;;;5219049;28;19931;-70
2022/07/07 15:51:25;;;;;;;;;;;18.50;99.90;;;;;;5229759;28;20181;-70
2022/07/07 15:54:03;;;;;;;;;;;18.70;99.90;;;;;;5221995;28;19931;-70
2022/07/07 15:56:35;;;;;;;;;;;18.90;99.90;;;;;;5246477;28;19924;-70
2022/07/07 15:59:09;;;;;;;;;;;18.80;99.90;;;;;;5205383;28;19925;-70
2022/07/07 16:01:44;;;;;;;;;;;18.70;99.90;;;;;;5222140;28;19925;-70
2022/07/07 16:07:10;;;;;;;;;;;18.80;99.90;;;;;;5227440;28;19929;-71
2022/07/07 16:09:44;;;;;;;;;;;18.80;99.90;;;;;;5211606;28;19924;-70
2022/07/07 16:12:16;;;;;;;;;;;18.90;99.90;;;;;;5212548;28;19929;-70
2022/07/07 16:14:50;;;;;;;;;;;19.00;99.90;;;;;;5195666;28;21082;-71
2022/07/07 16:17:22;;;;;;;;;;;19.10;99.90;;;;;;5223233;28;20170;-72
2022/07/07 16:19:55;;;;;;;;;;;19.20;99.90;;;;;;5211593;28;19932;-70
2022/07/07 16:22:28;;;;;;;;;;;19.10;99.90;;;;;;5222231;28;19978;-69
2022/07/07 16:25:00;;;;;;;;;;;19.00;99.90;;;;;;5209676;28;19927;-70
2022/07/07 16:27:33;;;;;;;;;;;18.90;99.90;;;;;;5235326;28;20308;-71
2022/07/07 16:30:07;;;;;;;;;;;18.90;99.90;;;;;;5220672;28;19921;-69
2022/07/07 16:32:39;;;;;;;;;;;18.90;99.90;;;;;;5204171;28;19924;-71
2022/07/07 16:35:12;;;;;;;;;;;18.80;99.90;;;;;;5225391;28;19925;-70
2022/07/07 16:37:45;;;;;;;;;;;18.80;99.90;;;;;;5240987;28;19928;-71
2022/07/07 16:40:18;;;;;;;;;;;18.70;99.90;;;;;;5209151;28;19925;-71
2022/07/07 16:42:50;;;;;;;;;;;18.70;99.90;;;;;;5203359;28;20297;-70
2022/07/07 16:45:23;;;;;;;;;;;18.70;99.90;;;;;;5235086;28;19938;-70
2022/07/07 16:47:56;;;;;;;;;;;18.70;99.90;;;;;;5246185;28;19920;-69
2022/07/07 16:50:29;;;;;;;;;;;18.60;99.90;;;;;;5244435;28;19928;-70
2022/07/07 16:53:01;;;;;;;;;;;18.60;99.90;;;;;;5232699;28;19931;-69
2022/07/07 16:55:34;;;;;;;;;;;18.70;99.90;;;;;;5222384;28;19929;-72
2022/07/07 16:58:07;;;;;;;;;;;18.50;99.90;;;;;;5244020;28;20380;-70
2022/07/07 17:00:39;;;;;;;;;;;18.50;99.90;;;;;;5214032;28;20692;-70
2022/07/07 17:03:12;;;;;;;;;;;18.40;99.90;;;;;;5215934;28;19928;-70
2022/07/07 17:05:46;;;;;;;;;;;18.10;99.90;;;;;;5221783;28;19924;-68
2022/07/07 17:08:18;;;;;;;;;;;17.70;99.90;;;;;;5229690;28;19924;-71